Time;durP1;ratioP1;P1;durP2;ratioP2;P2;SDS_P1;SDS_P2;PMS_P1;PMS_P2;Temp;Humidity;BMP_temperature;BMP_pressure;BME280_temperature;BME280_humidity;BME280_pressure;Samples;Min_cycle;Max_cycle;Signal;HPM_P1;HPM_P2
2022/12/12 00:01:36;;;;;;;2.65;2.45;;;;;;;-0.96;79.95;98095.34;4441603;32;35055;-76
2022/12/12 00:04:05;;;;;;;0.80;0.80;;;;;;;-1.29;80.33;98085.47;4441235;32;34402;-76
2022/12/12 00:06:33;;;;;;;0.90;0.90;;;;;;;-1.06;79.80;98086.72;4440649;32;33547;-76
2022/12/12 00:09:02;;;;;;;0.95;0.95;;;;;;;-1.03;79.10;98104.63;4455031;32;34791;-76
2022/12/12 00:11:30;;;;;;;0.80;0.80;;;;;;;-1.15;80.11;98104.44;4455025;32;35057;-75
2022/12/12 00:13:58;;;;;;;0.98;0.98;;;;;;;-1.28;80.01;98105.09;4441244;32;34401;-76
2022/12/12 00:16:27;;;;;;;3.12;2.75;;;;;;;-1.20;80.02;98108.59;4455148;32;33547;-76
2022/12/12 00:18:55;;;;;;;0.80;0.80;;;;;;;-1.04;78.40;98102.03;4455308;32;34764;-76
2022/12/12 00:21:26;;;;;;;0.90;0.90;;;;;;;-1.13;78.63;98114.69;4455022;32;34994;-77
2022/12/12 00:23:54;;;;;;;2.92;1.55;;;;;;;-1.36;79.39;98116.03;4455146;32;34542;-77
2022/12/12 00:26:28;;;;;;;0.80;0.80;;;;;;;-1.07;78.70;98112.22;4455009;32;33471;-76
2022/12/12 00:28:56;;;;;;;1.15;1.15;;;;;;;-1.46;79.30;98118.41;4455351;32;34899;-76
2022/12/12 00:31:25;;;;;;;0.98;0.98;;;;;;;-1.36;80.01;98121.13;4441174;32;35915;-76
2022/12/12 00:33:54;;;;;;;0.80;0.80;;;;;;;-1.34;79.77;98124.56;4440855;32;34519;-76
2022/12/12 00:36:27;;;;;;;4.22;1.77;;;;;;;-1.30;79.18;98129.75;4454903;32;34501;-76
2022/12/12 00:38:57;;;;;;;4.12;2.40;;;;;;;-1.01;78.78;98136.16;4441201;32;35046;-76
2022/12/12 00:41:24;;;;;;;1.98;1.90;;;;;;;-1.17;79.21;98132.50;4440938;32;35125;-76
2022/12/12 00:43:52;;;;;;;1.10;1.10;;;;;;;-1.06;78.70;98132.69;4440950;32;34612;-76
2022/12/12 00:46:23;;;;;;;0.80;0.80;;;;;;;-1.10;78.85;98135.16;4454886;32;33463;-76
2022/12/12 00:48:55;;;;;;;1.20;1.20;;;;;;;-1.16;79.69;98129.12;4454985;32;33274;-76
2022/12/12 00:51:25;;;;;;;1.10;1.10;;;;;;;-1.28;79.47;98136.56;4441049;32;35135;-76
2022/12/12 00:53:56;;;;;;;0.80;0.80;;;;;;;-1.00;78.81;98116.59;4441147;32;34424;-76
2022/12/12 00:56:25;;;;;;;0.80;0.80;;;;;;;-1.40;80.28;98127.00;4428461;32;33667;-76
2022/12/12 00:58:53;;;;;;;0.90;0.90;;;;;;;-1.28;79.96;98122.97;4440891;32;34590;-76
2022/12/12 01:01:24;;;;;;;1.00;1.00;;;;;;;-1.47;80.94;98119.22;4440899;32;35843;-76
2022/12/12 01:03:53;;;;;;;1.00;1.00;;;;;;;-1.30;80.59;98120.38;4454829;32;35158;-77
2022/12/12 01:06:21;;;;;;;0.95;0.95;;;;;;;-1.67;81.27;98126.53;4440801;32;33496;-76
2022/12/12 01:08:49;;;;;;;0.80;0.80;;;;;;;-1.55;81.35;98121.66;4440936;32;33886;-76
2022/12/12 01:11:18;;;;;;;1.90;1.75;;;;;;;-1.42;81.00;98113.34;4454727;32;34962;-77
2022/12/12 01:13:47;;;;;;;0.80;0.80;;;;;;;-1.58;82.04;98119.91;4454534;32;34491;-76
2022/12/12 01:16:15;;;;;;;1.23;1.23;;;;;;;-1.63;82.35;98110.44;4453695;32;34230;-76
2022/12/12 01:18:43;;;;;;;0.80;0.80;;;;;;;-1.56;81.95;98117.38;4440316;32;33758;-76
2022/12/12 01:21:13;;;;;;;1.08;1.00;;;;;;;-1.58;81.77;98111.37;4440591;32;34612;-76
2022/12/12 01:23:41;;;;;;;0.80;0.80;;;;;;;-1.27;80.92;98115.31;4440687;32;34496;-76
2022/12/12 01:26:16;;;;;;;1.90;1.55;;;;;;;-1.25;80.36;98123.00;4454525;32;33751;-76
2022/12/12 01:28:44;;;;;;;6.55;3.40;;;;;;;-1.13;79.64;98122.34;4440638;32;33977;-77
2022/12/12 01:31:12;;;;;;;1.58;1.55;;;;;;;-1.37;80.59;98119.41;4440603;32;35053;-77
2022/12/12 01:33:44;;;;;;;0.80;0.80;;;;;;;-1.29;79.25;98118.66;4440590;32;34390;-76
2022/12/12 01:36:15;;;;;;;0.80;0.80;;;;;;;-1.24;80.03;98112.81;4454380;32;33365;-75
2022/12/12 01:38:47;;;;;;;0.80;0.80;;;;;;;-1.00;78.71;98109.78;4454419;32;33923;-75
2022/12/12 01:41:15;;;;;;;1.33;1.33;;;;;;;-1.35;79.61;98112.63;4454431;32;34942;-76
2022/12/12 01:43:44;;;;;;;1.05;1.05;;;;;;;-1.40;80.20;98114.25;4440567;32;34442;-75
2022/12/12 01:46:21;;;;;;;1.80;1.70;;;;;;;-1.28;79.97;98121.25;4454299;32;33359;-76
2022/12/12 01:48:55;;;;;;;2.35;2.25;;;;;;;-1.33;80.20;98125.44;4454312;32;33991;-76
2022/12/12 01:51:25;;;;;;;0.93;0.93;;;;;;;-1.46;81.07;98114.16;4454225;32;34980;-76
2022/12/12 01:54:07;;;;;;;0.90;0.90;;;;;;;-1.41;80.45;98096.34;4440350;32;34268;-76
2022/12/12 01:56:37;;;;;;;1.10;1.05;;;;;;;-1.62;81.42;98099.41;4454105;32;34178;-76
2022/12/12 01:59:07;;;;;;;0.80;0.80;;;;;;;-1.76;81.33;98089.81;4454242;32;33781;-76
2022/12/12 02:01:36;;;;;;;0.80;0.80;;;;;;;-1.83;82.35;98093.09;4444908;32;34229;-76
2022/12/12 02:04:05;;;;;;;1.58;1.23;;;;;;;-1.62;81.43;98092.59;4455756;32;34432;-76
2022/12/12 02:06:33;;;;;;;8.20;4.90;;;;;;;-1.54;81.48;98090.19;4455684;32;33533;-76
2022/12/12 02:09:05;;;;;;;1.35;1.35;;;;;;;-2.08;83.02;98086.66;4469679;32;34752;-75
2022/12/12 02:11:36;;;;;;;0.80;0.80;;;;;;;-2.02;82.52;98091.03;4450357;32;35936;-76
2022/12/12 02:14:04;;;;;;;0.80;0.80;;;;;;;-1.93;81.90;98098.84;4443553;32;34449;-75
2022/12/12 02:16:47;;;;;;;0.80;0.80;;;;;;;-1.84;81.78;98091.34;4440021;32;33756;-77
2022/12/12 02:19:33;;;;;;;0.90;0.90;;;;;;;-2.22;82.62;98101.69;4453929;32;33903;-76
2022/12/12 02:22:06;;;;;;;1.53;1.43;;;;;;;-2.36;84.26;98106.50;4455326;32;35965;-76
2022/12/12 02:24:53;;;;;;;0.80;0.80;;;;;;;-2.11;83.45;98107.00;4427444;32;33693;-76
2022/12/12 02:27:53;;;;;;;0.90;0.90;;;;;;;-1.85;81.62;98102.41;4465169;32;33460;-76
2022/12/12 02:30:54;;;;;;;0.80;0.80;;;;;;;-1.76;81.77;98110.22;4455953;32;33862;-76
2022/12/12 02:33:28;;;;;;;1.23;1.23;;;;;;;-1.83;81.48;98113.50;4436501;32;34965;-78
2022/12/12 02:36:12;;;;;;;0.82;0.82;;;;;;;-2.11;80.61;98105.31;4441799;32;35321;-76
2022/12/12 02:38:53;;;;;;;0.85;0.85;;;;;;;-2.14;81.83;98112.03;4455856;32;34294;-77
2022/12/12 02:41:42;;;;;;;0.85;0.85;;;;;;;-1.92;80.80;98124.38;4447616;32;33920;-75
2022/12/12 02:44:29;;;;;;;0.80;0.80;;;;;;;-1.91;80.06;98115.03;4455848;32;34858;-76
2022/12/12 02:47:02;;;;;;;0.80;0.80;;;;;;;-1.67;78.64;98116.34;4457254;32;35324;-76
2022/12/12 02:49:41;;;;;;;3.30;1.92;;;;;;;-2.06;79.21;98114.75;4457447;32;33316;-76
2022/12/12 02:52:10;;;;;;;0.80;0.80;;;;;;;-1.74;77.41;98120.47;4445185;32;33791;-76
2022/12/12 02:54:38;;;;;;;0.90;0.90;;;;;;;-2.03;79.01;98130.09;4444478;32;35180;-76
2022/12/12 02:57:21;;;;;;;1.00;1.00;;;;;;;-1.58;77.45;98140.31;4471066;32;34411;-75
2022/12/12 02:59:55;;;;;;;0.80;0.80;;;;;;;-1.63;76.52;98139.38;4471298;32;33482;-76
2022/12/12 03:02:47;;;;;;;2.75;2.65;;;;;;;-1.56;75.85;98143.75;4444104;32;33028;-76
2022/12/12 03:08:48;;;;;;;0.98;0.95;;;;;;;-1.39;75.32;98146.63;4408073;32;35298;-76
2022/12/12 03:11:28;;;;;;;0.98;0.98;;;;;;;-1.49;74.46;98149.84;4441419;32;32921;-76
2022/12/12 03:14:00;;;;;;;1.40;1.33;;;;;;;-1.60;74.48;98152.19;4455783;32;35052;-76
2022/12/12 03:16:31;;;;;;;0.80;0.80;;;;;;;-1.41;74.67;98153.38;4454335;32;36160;-76
2022/12/12 03:19:07;;;;;;;1.23;1.23;;;;;;;-1.52;74.77;98157.44;4441781;32;34316;-76
2022/12/12 03:21:52;;;;;;;0.90;0.90;;;;;;;-1.58;73.88;98160.72;4438405;32;33325;-76
2022/12/12 03:24:43;;;;;;;0.80;0.80;;;;;;;-1.61;74.74;98162.38;4438903;32;33946;-76
2022/12/12 03:27:21;;;;;;;0.90;0.90;;;;;;;-1.22;72.52;98172.44;4438802;32;35024;-77
2022/12/12 03:29:56;;;;;;;0.80;0.80;;;;;;;-1.01;71.31;98169.38;4451424;32;34613;-76
2022/12/12 03:32:28;;;;;;;3.28;3.00;;;;;;;-1.33;72.12;98171.37;4438851;32;33318;-76
2022/12/12 03:35:06;;;;;;;1.75;1.65;;;;;;;-1.10;71.67;98176.88;4448202;32;33961;-76
2022/12/12 03:37:38;;;;;;;0.80;0.80;;;;;;;-1.36;72.72;98181.53;4454231;32;35009;-76
2022/12/12 03:40:10;;;;;;;0.80;0.80;;;;;;;-1.16;71.47;98190.44;4453347;32;34433;-76
2022/12/12 03:42:44;;;;;;;0.80;0.80;;;;;;;-1.25;71.72;98186.84;4454375;32;33404;-76
2022/12/12 03:45:26;;;;;;;0.82;0.82;;;;;;;-1.27;72.17;98193.63;4454191;32;34631;-76
2022/12/12 03:48:22;;;;;;;1.00;1.00;;;;;;;-1.29;71.52;98198.69;4455253;32;35715;-76
2022/12/12 03:50:54;;;;;;;1.52;1.42;;;;;;;-1.23;71.31;98197.97;4454194;32;34519;-76
2022/12/12 03:53:45;;;;;;;0.80;0.80;;;;;;;-1.04;71.07;98205.09;4454048;32;33012;-76
2022/12/12 03:56:37;;;;;;;1.02;1.02;;;;;;;-1.41;72.39;98204.47;4454040;32;33929;-76
2022/12/12 03:59:05;;;;;;;0.80;0.80;;;;;;;-0.87;70.76;98202.81;4454030;32;35851;-75
2022/12/12 04:01:47;;;;;;;0.80;0.80;;;;;;;-1.02;71.05;98213.66;4455156;32;34339;-76
2022/12/12 04:04:18;;;;;;;0.80;0.80;;;;;;;-1.42;72.85;98207.81;4454089;32;34326;-76
2022/12/12 04:07:02;;;;;;;2.10;2.00;;;;;;;-1.24;71.93;98214.09;4455223;32;33945;-76
2022/12/12 04:15:34;;;;;;;0.77;0.77;;;;;;;-1.02;71.23;98216.22;4454284;32;33738;-76
2022/12/12 04:18:23;;;;;;;0.73;0.73;;;;;;;-1.12;71.85;98233.91;4454114;32;33490;-76
2022/12/12 04:24:15;;;;;;;0.80;0.80;;;;;;;-0.69;69.36;98245.72;4438336;32;35278;-76
2022/12/12 04:26:50;;;;;;;0.80;0.80;;;;;;;-0.55;69.75;98250.19;4453772;32;33630;-76
2022/12/12 04:29:17;;;;;;;1.00;1.00;;;;;;;-1.05;70.63;98249.38;4453875;32;33863;-76
2022/12/12 04:31:52;;;;;;;0.90;0.90;;;;;;;-0.83;69.20;98249.72;4454865;32;34880;-76
2022/12/12 04:34:46;;;;;;;0.70;0.70;;;;;;;-0.87;69.63;98255.63;4441263;32;34408;-76
2022/12/12 04:37:21;;;;;;;1.23;1.23;;;;;;;-0.80;67.79;98254.91;4453753;32;33447;-76
2022/12/12 04:39:51;;;;;;;0.80;0.80;;;;;;;-1.01;67.37;98256.22;4454920;32;34241;-76
2022/12/12 04:42:22;;;;;;;0.90;0.90;;;;;;;-1.35;67.10;98250.50;4455003;32;35257;-75
2022/12/12 04:44:53;;;;;;;2.78;2.08;;;;;;;-1.51;67.77;98251.06;4453746;32;33621;-76
2022/12/12 04:47:22;;;;;;;0.80;0.80;;;;;;;-1.46;67.21;98261.38;4453802;32;33527;-75
2022/12/12 04:49:51;;;;;;;0.90;0.90;;;;;;;-1.25;66.71;98253.22;4453699;32;34691;-76
2022/12/12 04:52:20;;;;;;;0.80;0.80;;;;;;;-1.56;67.43;98261.16;4453417;32;34986;-75
2022/12/12 04:55:08;;;;;;;1.15;1.15;;;;;;;-1.23;66.19;98260.09;4453676;32;34445;-75
2022/12/12 04:57:41;;;;;;;1.60;1.50;;;;;;;-1.79;68.17;98270.06;4454703;32;33729;-76
2022/12/12 05:00:12;;;;;;;0.80;0.80;;;;;;;-1.68;68.46;98278.78;4453854;32;33760;-75
2022/12/12 05:02:43;;;;;;;0.80;0.80;;;;;;;-1.56;67.76;98275.62;4454773;32;35295;-76
2022/12/12 05:05:17;;;;;;;4.95;3.83;;;;;;;-1.57;67.25;98276.44;4454780;32;34478;-76
2022/12/12 05:07:53;;;;;;;1.77;1.73;;;;;;;-1.64;68.65;98282.25;4453691;32;33380;-76
2022/12/12 05:10:21;;;;;;;2.22;2.05;;;;;;;-1.70;68.74;98283.00;4454688;32;34745;-75
2022/12/12 05:12:52;;;;;;;0.90;0.90;;;;;;;-1.80;68.37;98281.97;4453464;32;35048;-75
2022/12/12 05:15:20;;;;;;;2.08;1.90;;;;;;;-1.42;67.77;98286.97;4453571;32;34299;-77
2022/12/12 05:18:08;;;;;;;2.25;2.15;;;;;;;-1.04;66.65;98281.75;4453388;32;34233;-76
2022/12/12 05:20:36;;;;;;;0.93;0.93;;;;;;;-1.04;66.30;98286.87;4454540;32;34730;-76
2022/12/12 05:23:04;;;;;;;0.80;0.80;;;;;;;-1.72;68.61;98284.66;4467435;32;34697;-76
2022/12/12 05:25:32;;;;;;;0.80;0.80;;;;;;;-1.00;66.44;98286.06;4456109;32;34538;-76
2022/12/12 05:28:00;;;;;;;1.35;1.02;;;;;;;-1.33;67.02;98289.72;4470118;32;33319;-76
2022/12/12 05:30:28;;;;;;;0.80;0.80;;;;;;;-1.44;68.10;98296.31;4470106;32;33882;-75
2022/12/12 05:32:56;;;;;;;0.80;0.80;;;;;;;-1.08;66.97;98295.28;4470057;32;34520;-77
2022/12/12 05:35:26;;;;;;;1.85;1.75;;;;;;;-1.20;66.78;98295.06;4456457;32;35217;-76
2022/12/12 05:37:54;;;;;;;0.80;0.80;;;;;;;-1.88;69.46;98295.38;4469783;32;33515;-78
2022/12/12 05:40:22;;;;;;;3.60;3.22;;;;;;;-1.76;68.30;98290.53;4456094;32;34026;-76
2022/12/12 05:42:51;;;;;;;0.98;0.98;;;;;;;-2.07;69.14;98292.41;4470168;32;35922;-75
2022/12/12 05:45:19;;;;;;;1.00;1.00;;;;;;;-1.97;69.61;98298.59;4469857;32;34497;-75
2022/12/12 05:47:47;;;;;;;0.80;0.80;;;;;;;-2.10;69.34;98298.31;4469809;32;33825;-75
2022/12/12 05:50:16;;;;;;;1.35;1.35;;;;;;;-1.81;68.49;98289.59;4455975;32;34688;-75
2022/12/12 05:52:43;;;;;;;0.90;0.90;;;;;;;-1.82;68.39;98298.06;4469870;32;34896;-74
2022/12/12 05:55:11;;;;;;;1.00;1.00;;;;;;;-2.14;68.81;98303.31;4469749;32;34901;-74
2022/12/12 05:57:40;;;;;;;0.80;0.80;;;;;;;-1.87;67.72;98303.06;4469735;32;33688;-76
2022/12/12 06:00:08;;;;;;;0.88;0.88;;;;;;;-2.05;67.98;98310.31;4469974;32;34016;-75
2022/12/12 06:02:37;;;;;;;0.98;0.98;;;;;;;-1.89;67.95;98314.91;4469621;32;36017;-77
2022/12/12 06:05:06;;;;;;;0.80;0.80;;;;;;;-2.31;69.44;98315.69;4471532;32;34437;-77
2022/12/12 06:07:34;;;;;;;0.95;0.95;;;;;;;-2.11;68.48;98316.13;4471584;32;33437;-77
2022/12/12 06:10:02;;;;;;;0.90;0.90;;;;;;;-1.79;67.79;98306.63;4471585;32;34026;-77
2022/12/12 06:12:30;;;;;;;1.23;1.23;;;;;;;-1.91;67.54;98309.81;4457458;32;35025;-77
2022/12/12 06:14:58;;;;;;;0.80;0.80;;;;;;;-1.48;65.77;98304.75;4471465;32;34532;-77
2022/12/12 06:17:26;;;;;;;0.90;0.90;;;;;;;-1.86;67.17;98309.87;4457460;32;33311;-76
2022/12/12 06:20:00;;;;;;;0.90;0.90;;;;;;;-2.27;68.59;98314.91;4471731;32;34777;-76
2022/12/12 06:22:28;;;;;;;0.80;0.80;;;;;;;-2.25;68.61;98320.06;4457221;32;35783;-78
2022/12/12 06:24:56;;;;;;;0.80;0.80;;;;;;;-1.85;67.62;98328.59;4457482;32;34151;-77
2022/12/12 06:27:24;;;;;;;0.80;0.80;;;;;;;-1.78;67.14;98322.84;4471397;32;33460;-77
2022/12/12 06:29:52;;;;;;;1.83;1.70;;;;;;;-1.69;67.00;98324.69;4457496;32;33406;-77
2022/12/12 06:32:20;;;;;;;0.80;0.80;;;;;;;-1.35;66.35;98318.59;4471277;32;34938;-78
2022/12/12 06:34:48;;;;;;;0.80;0.80;;;;;;;-1.70;67.16;98323.84;4471300;32;34414;-77
2022/12/12 06:37:16;;;;;;;0.80;0.80;;;;;;;-1.20;66.45;98330.81;4457401;32;33531;-77
2022/12/12 06:39:45;;;;;;;1.58;1.50;;;;;;;-1.41;66.86;98334.69;4471266;32;33960;-77
2022/12/12 06:42:13;;;;;;;0.80;0.80;;;;;;;-1.94;68.85;98345.44;4457488;32;35071;-78
2022/12/12 06:44:41;;;;;;;1.00;1.00;;;;;;;-1.72;69.21;98341.66;4458001;32;35308;-78
2022/12/12 06:47:09;;;;;;;1.30;1.30;;;;;;;-1.78;69.07;98346.66;4471550;32;32546;-77
2022/12/12 06:49:37;;;;;;;1.10;1.10;;;;;;;-1.56;68.79;98352.22;4471255;32;33937;-77
2022/12/12 06:52:05;;;;;;;1.30;1.30;;;;;;;-1.61;69.54;98348.69;4471135;32;35044;-76
2022/12/12 06:54:35;;;;;;;3.08;2.90;;;;;;;-1.76;69.78;98355.19;4457712;32;35274;-75
2022/12/12 06:57:03;;;;;;;8.63;8.10;;;;;;;-1.67;70.29;98358.78;4471041;32;33495;-76
2022/12/12 06:59:31;;;;;;;1.62;1.52;;;;;;;-1.58;70.11;98346.22;4471116;32;34486;-74
2022/12/12 07:01:59;;;;;;;4.05;3.00;;;;;;;-1.21;69.36;98345.28;4471088;32;35054;-74
2022/12/12 07:04:28;;;;;;;1.80;1.70;;;;;;;-1.33;70.28;98351.00;4471313;32;35194;-74
2022/12/12 07:06:57;;;;;;;0.80;0.80;;;;;;;-0.92;68.21;98352.63;4456980;32;32603;-76
2022/12/12 07:09:27;;;;;;;0.80;0.80;;;;;;;-0.74;67.87;98352.16;4457252;32;32993;-74
2022/12/12 07:11:55;;;;;;;1.10;1.10;;;;;;;-0.91;67.58;98358.62;4470939;32;35867;-75
2022/12/12 07:14:23;;;;;;;0.90;0.90;;;;;;;-0.85;67.98;98361.28;4457014;32;35167;-75
2022/12/12 07:16:51;;;;;;;1.02;0.98;;;;;;;-0.74;67.32;98352.16;4471010;32;33531;-75
2022/12/12 07:19:19;;;;;;;0.80;0.80;;;;;;;-0.80;66.78;98347.75;4471073;32;34646;-76
2022/12/12 07:21:47;;;;;;;1.52;1.42;;;;;;;-0.97;68.32;98360.25;4470837;32;35710;-76
2022/12/12 07:24:15;;;;;;;0.90;0.90;;;;;;;-1.22;68.85;98363.13;4444104;32;33761;-76
2022/12/12 07:26:43;;;;;;;1.85;1.73;;;;;;;-1.12;68.46;98365.03;4470883;32;33694;-75
2022/12/12 07:29:11;;;;;;;1.00;1.00;;;;;;;-0.88;67.67;98376.56;4471069;32;34708;-76
2022/12/12 07:31:39;;;;;;;0.90;0.90;;;;;;;-0.50;66.76;98376.41;4456939;32;35761;-76
2022/12/12 07:34:07;;;;;;;0.77;0.77;;;;;;;-0.71;66.58;98377.75;4457095;32;35313;-76
2022/12/12 07:36:35;;;;;;;0.80;0.80;;;;;;;-0.62;65.48;98385.59;4471016;32;33318;-75
2022/12/12 07:39:03;;;;;;;1.05;1.05;;;;;;;-0.60;65.96;98391.59;4456823;32;33943;-75
2022/12/12 07:41:31;;;;;;;1.83;1.73;;;;;;;0.09;64.35;98386.78;4444057;32;35315;-76
2022/12/12 07:44:00;;;;;;;0.80;0.80;;;;;;;0.48;63.44;98383.09;4457008;32;34438;-75
2022/12/12 07:46:27;;;;;;;0.85;0.85;;;;;;;0.54;62.87;98383.16;4470828;32;33538;-76
2022/12/12 07:48:56;;;;;;;0.88;0.88;;;;;;;0.88;62.14;98383.63;4470739;32;33926;-76
2022/12/12 07:51:24;;;;;;;1.52;1.42;;;;;;;0.86;61.89;98385.28;4443977;32;35117;-76
2022/12/12 07:53:52;;;;;;;0.90;0.90;;;;;;;0.98;60.72;98381.19;4443927;32;33657;-76
2022/12/12 07:56:20;;;;;;;1.27;1.27;;;;;;;1.24;59.53;98390.03;4456763;32;32210;-76
2022/12/12 07:58:48;;;;;;;0.70;0.70;;;;;;;1.29;59.12;98393.50;4457074;32;33908;-76
2022/12/12 08:01:20;;;;;;;2.40;2.20;;;;;;;1.17;59.78;98405.34;4456729;32;34967;-75
2022/12/12 08:03:49;;;;;;;0.93;0.93;;;;;;;0.74;61.13;98405.63;4456937;32;34568;-76
2022/12/12 08:06:19;;;;;;;0.80;0.80;;;;;;;0.63;61.45;98412.31;4456673;32;34354;-76
2022/12/12 08:08:48;;;;;;;0.70;0.70;;;;;;;1.57;59.39;98409.19;4456868;32;33101;-76
2022/12/12 08:11:19;;;;;;;3.03;1.70;;;;;;;1.94;58.03;98414.69;4456812;32;35125;-76
2022/12/12 08:13:47;;;;;;;0.70;0.70;;;;;;;1.12;60.58;98418.09;4456642;32;34436;-76
2022/12/12 08:16:18;;;;;;;9.90;2.75;;;;;;;0.94;61.11;98411.88;4456816;32;33634;-76
2022/12/12 08:18:48;;;;;;;1.08;1.08;;;;;;;0.94;60.89;98421.28;4444020;32;34707;-76
2022/12/12 08:21:16;;;;;;;2.03;1.92;;;;;;;0.66;62.75;98418.34;4456668;32;35137;-76
2022/12/12 08:23:57;;;;;;;1.08;1.05;;;;;;;0.80;61.54;98418.53;4444560;32;33682;-76
2022/12/12 08:26:26;;;;;;;1.05;1.05;;;;;;;1.05;61.04;98426.53;4456179;32;34293;-76
2022/12/12 08:28:55;;;;;;;5.43;2.03;;;;;;;0.91;61.16;98429.78;4443742;32;32302;-76
2022/12/12 08:31:24;;;;;;;2.08;1.98;;;;;;;1.37;60.31;98429.47;4456625;32;35881;-76
2022/12/12 08:33:52;;;;;;;0.95;0.95;;;;;;;1.17;61.61;98424.13;4456629;32;34566;-76
2022/12/12 08:36:28;;;;;;;1.42;1.35;;;;;;;1.63;59.18;98426.34;4456412;32;32904;-77
2022/12/12 08:39:04;;;;;;;1.27;1.25;;;;;;;2.19;57.24;98426.00;4456187;32;33132;-77
2022/12/12 08:41:34;;;;;;;0.70;0.70;;;;;;;1.99;57.25;98433.53;4470532;32;35064;-77
2022/12/12 08:44:03;;;;;;;1.80;1.70;;;;;;;2.67;55.75;98421.19;4456409;32;35195;-76
2022/12/12 08:46:31;;;;;;;0.70;0.70;;;;;;;3.96;52.28;98431.94;4470471;32;33430;-76
2022/12/12 08:48:59;;;;;;;0.80;0.80;;;;;;;4.98;49.68;98420.66;4456476;32;34771;-76
2022/12/12 08:51:27;;;;;;;2.33;2.17;;;;;;;5.05;48.52;98423.22;4456267;32;34322;-76
2022/12/12 08:53:55;;;;;;;1.77;1.62;;;;;;;5.63;45.97;98432.44;4456208;32;33615;-76
2022/12/12 08:56:24;;;;;;;0.88;0.88;;;;;;;6.20;45.48;98434.66;4456390;32;33548;-77
2022/12/12 08:58:52;;;;;;;1.12;1.02;;;;;;;5.71;45.37;98427.22;4470225;32;33911;-76
2022/12/12 09:01:22;;;;;;;0.70;0.70;;;;;;;4.97;47.14;98430.13;4456386;32;35149;-77
2022/12/12 09:03:52;;;;;;;1.00;1.00;;;;;;;5.01;47.22;98420.66;4456370;32;35257;-77
2022/12/12 09:06:21;;;;;;;1.20;0.98;;;;;;;4.59;48.04;98428.50;4470260;32;33599;-76
2022/12/12 09:08:49;;;;;;;0.82;0.82;;;;;;;4.97;47.35;98429.28;4470373;32;34672;-77
2022/12/12 09:11:20;;;;;;;0.80;0.80;;;;;;;4.15;49.26;98427.66;4456634;32;35954;-76
2022/12/12 09:13:48;;;;;;;1.25;1.25;;;;;;;4.15;50.08;98432.81;4470243;32;34604;-76
2022/12/12 09:16:18;;;;;;;1.08;1.08;;;;;;;4.58;49.49;98434.50;4456317;32;33403;-76
2022/12/12 09:18:46;;;;;;;3.50;1.75;;;;;;;4.90;47.78;98431.84;4456515;32;33989;-76
2022/12/12 09:21:16;;;;;;;1.23;1.12;;;;;;;3.72;49.81;98426.75;4469966;32;35887;-77
2022/12/12 09:23:46;;;;;;;0.80;0.80;;;;;;;2.71;53.51;98440.91;4470045;32;34525;-76
2022/12/12 09:26:16;;;;;;;2.62;2.42;;;;;;;2.74;52.93;98422.09;4470242;32;33621;-77
2022/12/12 09:28:44;;;;;;;3.10;2.85;;;;;;;0.82;57.77;98429.66;4470093;32;34781;-77
2022/12/12 09:31:13;;;;;;;6.53;4.68;;;;;;;1.13;57.64;98427.50;4456145;32;34085;-77
2022/12/12 09:33:42;;;;;;;13.73;12.52;;;;;;;1.32;57.40;98437.13;4466788;32;34345;-76
2022/12/12 09:36:11;;;;;;;4.40;4.10;;;;;;;1.91;56.63;98442.88;4456141;32;34254;-77
2022/12/12 09:38:42;;;;;;;4.07;3.70;;;;;;;2.06;56.42;98444.72;4455096;32;34019;-77
2022/12/12 09:41:20;;;;;;;5.70;5.15;;;;;;;2.68;54.84;98442.59;4456021;32;35191;-76
2022/12/12 09:44:06;;;;;;;8.55;7.65;;;;;;;3.02;53.48;98443.66;4456152;32;34518;-76
2022/12/12 09:46:37;;;;;;;1.67;1.58;;;;;;;3.55;52.20;98437.87;4458035;32;34283;-76
2022/12/12 09:49:33;;;;;;;0.93;0.93;;;;;;;4.36;50.44;98421.66;4454362;32;34735;-77
2022/12/12 09:52:22;;;;;;;0.80;0.80;;;;;;;5.44;46.88;98434.25;4454186;32;34962;-77
2022/12/12 09:54:59;;;;;;;0.93;0.93;;;;;;;6.23;46.37;98439.81;4441327;32;35366;-76
2022/12/12 09:57:28;;;;;;;0.70;0.70;;;;;;;4.82;49.60;98441.34;4427550;32;33549;-77
2022/12/12 10:00:08;;;;;;;1.05;1.05;;;;;;;5.82;47.04;98448.69;4440467;32;34025;-77
2022/12/12 10:03:14;;;;;;;1.08;1.08;;;;;;;6.04;45.57;98451.16;4447128;32;35928;-77
2022/12/12 10:05:55;;;;;;;2.40;2.25;;;;;;;5.50;48.06;98452.28;4469766;32;34516;-77
2022/12/12 10:08:53;;;;;;;0.90;0.90;;;;;;;5.49;47.65;98455.75;4458208;32;34179;-77
2022/12/12 10:14:51;;;;;;;3.10;1.40;;;;;;;4.96;48.79;98449.06;4457779;32;34950;-77
2022/12/12 10:17:27;;;;;;;1.45;1.35;;;;;;;4.74;48.08;98448.22;4469454;32;35324;-77
2022/12/12 10:20:04;;;;;;;0.50;0.50;;;;;;;3.81;50.32;98442.19;4456172;32;33604;-77
2022/12/12 10:22:51;;;;;;;0.60;0.60;;;;;;;5.42;47.97;98445.47;4469081;32;33899;-76
2022/12/12 10:25:24;;;;;;;;;;;;;;;6.35;45.52;98438.00;4469695;32;35513;-77
2022/12/12 10:27:59;;;;;;;0.85;0.85;;;;;;;5.57;45.90;98441.94;4455637;32;34735;-77
2022/12/12 10:30:29;;;;;;;0.90;0.90;;;;;;;4.10;50.42;98459.44;4455401;32;33500;-77
2022/12/12 10:33:06;;;;;;;0.85;0.85;;;;;;;3.09;51.01;98466.00;4455341;32;34820;-77
2022/12/12 10:35:45;;;;;;;1.35;1.25;;;;;;;3.15;50.35;98458.28;4469212;32;36155;-76
2022/12/12 10:38:19;;;;;;;1.00;1.00;;;;;;;4.17;49.69;98466.31;4455414;32;34411;-77
2022/12/12 10:40:49;;;;;;;1.10;1.10;;;;;;;2.15;51.52;98451.63;4455557;32;34363;-78
2022/12/12 10:43:44;;;;;;;1.95;1.85;;;;;;;2.58;50.95;98467.41;4469163;32;33858;-77
2022/12/12 10:46:27;;;;;;;0.70;0.70;;;;;;;3.68;49.52;98463.66;4469024;32;35279;-76
2022/12/12 10:48:55;;;;;;;0.70;0.70;;;;;;;5.32;46.00;98462.69;4469403;32;34435;-77
2022/12/12 10:51:26;;;;;;;0.77;0.77;;;;;;;5.55;44.30;98460.00;4457332;32;34337;-77
2022/12/12 10:53:54;;;;;;;0.75;0.75;;;;;;;4.02;46.30;98471.44;4457794;32;33862;-77
2022/12/12 10:56:25;;;;;;;0.90;0.90;;;;;;;2.44;49.90;98465.56;4457243;32;34938;-78
2022/12/12 10:58:57;;;;;;;0.60;0.60;;;;;;;4.67;46.11;98449.94;4471107;32;35088;-76
2022/12/12 11:01:30;;;;;;;0.90;0.90;;;;;;;5.33;43.10;98459.25;4471108;32;34181;-76
2022/12/12 11:04:19;;;;;;;6.37;1.87;;;;;;;5.89;43.59;98489.12;4459523;32;34744;-77
2022/12/12 11:06:53;;;;;;;2.45;1.92;;;;;;;5.67;43.57;98459.94;4471147;32;35009;-77
2022/12/12 11:09:27;;;;;;;0.73;0.73;;;;;;;3.20;48.30;98469.47;4457408;32;34498;-77
2022/12/12 11:12:04;;;;;;;0.98;0.98;;;;;;;5.48;44.34;98472.09;4457699;32;33407;-77
2022/12/12 11:14:38;;;;;;;1.12;1.12;;;;;;;5.36;44.45;98459.22;4457118;32;34681;-77
2022/12/12 11:17:30;;;;;;;0.52;0.52;;;;;;;6.02;43.66;98473.56;4471096;32;35938;-77
2022/12/12 11:20:01;;;;;;;1.20;1.12;;;;;;;3.44;47.98;98483.28;4457063;32;34415;-77
2022/12/12 11:22:31;;;;;;;0.60;0.60;;;;;;;4.07;48.23;98475.72;4441507;32;33417;-76
2022/12/12 11:24:59;;;;;;;0.73;0.73;;;;;;;3.94;48.43;98482.59;4454438;32;33078;-77
2022/12/12 11:27:31;;;;;;;0.60;0.60;;;;;;;4.63;47.68;98476.63;4455403;32;35000;-77
2022/12/12 11:30:06;;;;;;;0.85;0.85;;;;;;;5.37;47.47;98471.28;4455520;32;34378;-77
2022/12/12 11:32:45;;;;;;;0.65;0.65;;;;;;;4.99;46.74;98482.56;4455514;32;33492;-77
2022/12/12 11:35:35;;;;;;;0.60;0.60;;;;;;;5.12;46.22;98463.63;4454336;32;33893;-77
2022/12/12 11:38:19;;;;;;;0.60;0.60;;;;;;;5.61;45.13;98487.53;4455429;32;35220;-77
2022/12/12 11:41:01;;;;;;;0.60;0.60;;;;;;;5.01;47.02;98475.72;4454071;32;34461;-77
2022/12/12 11:43:35;;;;;;;0.60;0.60;;;;;;;5.10;46.89;98478.25;4441704;32;31707;-78
2022/12/12 11:46:12;;;;;;;0.70;0.70;;;;;;;4.10;49.30;98480.03;4441682;32;33358;-77
2022/12/12 11:48:58;;;;;;;0.60;0.60;;;;;;;4.91;48.74;98484.31;4442124;32;34988;-77
2022/12/12 11:51:36;;;;;;;0.65;0.65;;;;;;;6.04;46.38;98485.59;4454157;32;34411;-77
2022/12/12 11:54:21;;;;;;;0.60;0.60;;;;;;;5.45;45.58;98476.41;4455230;32;34147;-77
2022/12/12 11:57:03;;;;;;;0.70;0.70;;;;;;;3.72;50.69;98497.09;4455222;32;34718;-77
2022/12/12 11:59:53;;;;;;;0.80;0.80;;;;;;;3.07;52.53;98492.53;4455397;32;35820;-77
2022/12/12 12:02:49;;;;;;;0.70;0.70;;;;;;;1.86;57.19;98501.88;4454495;32;35365;-77
2022/12/12 12:05:27;;;;;;;0.80;0.80;;;;;;;1.91;58.63;98504.50;4454099;32;33353;-76
2022/12/12 12:08:13;;;;;;;0.62;0.62;;;;;;;0.73;62.53;98504.72;4454141;32;34002;-76
2022/12/12 12:11:03;;;;;;;0.70;0.70;;;;;;;1.63;62.08;98496.47;4454334;32;35998;-76
2022/12/12 12:13:34;;;;;;;1.05;1.05;;;;;;;1.78;61.48;98500.06;4455097;32;35258;-76
2022/12/12 12:16:14;;;;;;;1.00;1.00;;;;;;;1.28;62.67;98502.03;4455160;32;33368;-77
2022/12/12 12:18:59;;;;;;;0.70;0.70;;;;;;;1.22;62.69;98504.53;4453938;32;34786;-76
2022/12/12 12:21:59;;;;;;;0.70;0.70;;;;;;;1.11;63.31;98503.53;4457219;32;35916;-76